sensor_id;sensor_type;location;lat;lon;timestamp;P1;durP1;ratioP1;P2;durP2;ratioP2
61590;SDS011;57639;52.410;-1.966;2023-01-30T00:06:12;0.60;;;0.50;;
61590;SDS011;57639;52.410;-1.966;2023-01-30T00:09:19;1.40;;;0.80;;
61590;SDS011;57639;52.410;-1.966;2023-01-30T00:12:27;1.42;;;0.70;;
61590;SDS011;57639;52.410;-1.966;2023-01-30T00:15:33;1.15;;;0.63;;
61590;SDS011;57639;52.410;-1.966;2023-01-30T00:18:40;1.30;;;0.70;;
61590;SDS011;57639;52.410;-1.966;2023-01-30T00:21:46;0.70;;;0.47;;
61590;SDS011;57639;52.410;-1.966;2023-01-30T00:24:52;1.23;;;0.65;;
61590;SDS011;57639;52.410;-1.966;2023-01-30T00:28:01;1.40;;;0.70;;
61590;SDS011;57639;52.410;-1.966;2023-01-30T00:31:08;0.98;;;0.57;;
61590;SDS011;57639;52.410;-1.966;2023-01-30T00:34:14;1.88;;;0.70;;
61590;SDS011;57639;52.410;-1.966;2023-01-30T00:37:20;0.93;;;0.60;;
61590;SDS011;57639;52.410;-1.966;2023-01-30T00:40:27;1.67;;;0.77;;
61590;SDS011;57639;52.410;-1.966;2023-01-30T00:43:36;1.15;;;0.70;;
61590;SDS011;57639;52.410;-1.966;2023-01-30T00:46:58;1.25;;;0.60;;
61590;SDS011;57639;52.410;-1.966;2023-01-30T00:50:10;0.93;;;0.50;;
61590;SDS011;57639;52.410;-1.966;2023-01-30T00:53:18;1.23;;;0.70;;
61590;SDS011;57639;52.410;-1.966;2023-01-30T00:56:24;1.92;;;0.60;;
61590;SDS011;57639;52.410;-1.966;2023-01-30T00:59:33;1.17;;;0.73;;
61590;SDS011;57639;52.410;-1.966;2023-01-30T01:02:39;5.35;;;0.80;;
61590;SDS011;57639;52.410;-1.966;2023-01-30T01:05:45;3.45;;;0.60;;
61590;SDS011;57639;52.410;-1.966;2023-01-30T01:08:52;4.68;;;1.00;;
61590;SDS011;57639;52.410;-1.966;2023-01-30T01:11:58;3.58;;;0.80;;
61590;SDS011;57639;52.410;-1.966;2023-01-30T01:15:08;4.97;;;0.70;;
61590;SDS011;57639;52.410;-1.966;2023-01-30T01:21:20;2.22;;;0.80;;
61590;SDS011;57639;52.410;-1.966;2023-01-30T01:24:27;2.70;;;0.95;;
61590;SDS011;57639;52.410;-1.966;2023-01-30T01:27:33;3.65;;;0.80;;
61590;SDS011;57639;52.410;-1.966;2023-01-30T01:30:42;1.55;;;0.90;;
61590;SDS011;57639;52.410;-1.966;2023-01-30T01:33:48;2.50;;;1.00;;
61590;SDS011;57639;52.410;-1.966;2023-01-30T01:36:54;4.40;;;1.00;;
61590;SDS011;57639;52.410;-1.966;2023-01-30T01:40:00;2.83;;;1.00;;
61590;SDS011;57639;52.410;-1.966;2023-01-30T01:43:23;2.55;;;1.02;;
61590;SDS011;57639;52.410;-1.966;2023-01-30T01:46:33;2.75;;;1.10;;
61590;SDS011;57639;52.410;-1.966;2023-01-30T01:49:41;3.22;;;1.00;;
61590;SDS011;57639;52.410;-1.966;2023-01-30T01:52:49;4.88;;;1.10;;
61590;SDS011;57639;52.410;-1.966;2023-01-30T01:55:58;8.77;;;1.33;;
61590;SDS011;57639;52.410;-1.966;2023-01-30T01:59:08;3.35;;;1.38;;
61590;SDS011;57639;52.410;-1.966;2023-01-30T02:05:30;4.93;;;1.08;;
61590;SDS011;57639;52.410;-1.966;2023-01-30T02:08:39;4.93;;;1.10;;
61590;SDS011;57639;52.410;-1.966;2023-01-30T02:14:56;3.25;;;1.10;;
61590;SDS011;57639;52.410;-1.966;2023-01-30T02:18:07;3.90;;;1.20;;
61590;SDS011;57639;52.410;-1.966;2023-01-30T02:21:20;2.92;;;0.80;;
61590;SDS011;57639;52.410;-1.966;2023-01-30T02:24:57;2.35;;;1.00;;
61590;SDS011;57639;52.410;-1.966;2023-01-30T02:28:40;2.38;;;0.93;;
61590;SDS011;57639;52.410;-1.966;2023-01-30T02:32:12;3.38;;;1.10;;
61590;SDS011;57639;52.410;-1.966;2023-01-30T02:35:28;2.37;;;0.87;;
61590;SDS011;57639;52.410;-1.966;2023-01-30T02:38:45;1.90;;;0.80;;
61590;SDS011;57639;52.410;-1.966;2023-01-30T02:41:59;2.08;;;0.77;;
61590;SDS011;57639;52.410;-1.966;2023-01-30T02:45:13;4.45;;;1.30;;
61590;SDS011;57639;52.410;-1.966;2023-01-30T02:48:37;2.22;;;0.88;;
61590;SDS011;57639;52.410;-1.966;2023-01-30T02:51:47;2.17;;;0.70;;
61590;SDS011;57639;52.410;-1.966;2023-01-30T02:54:58;2.75;;;0.90;;
61590;SDS011;57639;52.410;-1.966;2023-01-30T02:58:04;2.45;;;0.70;;
61590;SDS011;57639;52.410;-1.966;2023-01-30T03:01:23;2.80;;;0.80;;
61590;SDS011;57639;52.410;-1.966;2023-01-30T03:04:49;2.42;;;0.88;;
61590;SDS011;57639;52.410;-1.966;2023-01-30T03:08:07;5.68;;;0.93;;
61590;SDS011;57639;52.410;-1.966;2023-01-30T03:11:23;3.10;;;0.70;;
61590;SDS011;57639;52.410;-1.966;2023-01-30T03:14:36;1.73;;;0.70;;
61590;SDS011;57639;52.410;-1.966;2023-01-30T03:17:47;1.75;;;0.77;;
61590;SDS011;57639;52.410;-1.966;2023-01-30T03:20:56;2.78;;;0.63;;
61590;SDS011;57639;52.410;-1.966;2023-01-30T03:24:09;2.83;;;0.98;;
61590;SDS011;57639;52.410;-1.966;2023-01-30T03:27:15;1.67;;;0.75;;
61590;SDS011;57639;52.410;-1.966;2023-01-30T03:30:22;2.25;;;0.80;;
61590;SDS011;57639;52.410;-1.966;2023-01-30T03:33:30;2.15;;;0.80;;
61590;SDS011;57639;52.410;-1.966;2023-01-30T03:36:38;1.73;;;0.80;;
61590;SDS011;57639;52.410;-1.966;2023-01-30T03:39:45;3.42;;;0.82;;
61590;SDS011;57639;52.410;-1.966;2023-01-30T03:42:51;1.92;;;0.77;;
61590;SDS011;57639;52.410;-1.966;2023-01-30T03:45:57;2.25;;;0.85;;
61590;SDS011;57639;52.410;-1.966;2023-01-30T03:49:03;4.25;;;0.77;;
61590;SDS011;57639;52.410;-1.966;2023-01-30T03:52:12;1.60;;;0.70;;
61590;SDS011;57639;52.410;-1.966;2023-01-30T03:55:18;2.13;;;0.70;;
61590;SDS011;57639;52.410;-1.966;2023-01-30T03:58:24;2.65;;;0.90;;
61590;SDS011;57639;52.410;-1.966;2023-01-30T04:01:30;1.98;;;0.70;;
61590;SDS011;57639;52.410;-1.966;2023-01-30T04:04:36;2.53;;;0.95;;
61590;SDS011;57639;52.410;-1.966;2023-01-30T04:07:45;3.17;;;0.90;;
61590;SDS011;57639;52.410;-1.966;2023-01-30T04:10:56;1.55;;;0.57;;
61590;SDS011;57639;52.410;-1.966;2023-01-30T04:14:03;2.30;;;0.73;;
61590;SDS011;57639;52.410;-1.966;2023-01-30T04:17:07;2.45;;;1.00;;
61590;SDS011;57639;52.410;-1.966;2023-01-30T04:20:13;1.90;;;0.70;;
61590;SDS011;57639;52.410;-1.966;2023-01-30T04:23:22;2.80;;;0.75;;
61590;SDS011;57639;52.410;-1.966;2023-01-30T04:26:28;2.67;;;0.90;;
61590;SDS011;57639;52.410;-1.966;2023-01-30T04:29:34;2.15;;;0.70;;
61590;SDS011;57639;52.410;-1.966;2023-01-30T04:32:40;2.17;;;0.73;;
61590;SDS011;57639;52.410;-1.966;2023-01-30T04:35:50;3.45;;;0.60;;
61590;SDS011;57639;52.410;-1.966;2023-01-30T04:38:59;2.25;;;0.75;;
61590;SDS011;57639;52.410;-1.966;2023-01-30T04:42:05;4.05;;;0.80;;
61590;SDS011;57639;52.410;-1.966;2023-01-30T04:45:11;1.75;;;0.70;;
61590;SDS011;57639;52.410;-1.966;2023-01-30T04:48:17;2.00;;;0.60;;
61590;SDS011;57639;52.410;-1.966;2023-01-30T04:51:25;2.47;;;0.80;;
61590;SDS011;57639;52.410;-1.966;2023-01-30T04:54:34;1.50;;;0.70;;
61590;SDS011;57639;52.410;-1.966;2023-01-30T04:57:40;1.90;;;0.70;;
61590;SDS011;57639;52.410;-1.966;2023-01-30T05:00:47;2.17;;;0.80;;
61590;SDS011;57639;52.410;-1.966;2023-01-30T05:03:53;1.40;;;0.63;;
61590;SDS011;57639;52.410;-1.966;2023-01-30T05:07:00;2.72;;;0.90;;
61590;SDS011;57639;52.410;-1.966;2023-01-30T05:10:09;1.58;;;0.40;;
61590;SDS011;57639;52.410;-1.966;2023-01-30T05:13:16;2.22;;;0.82;;
61590;SDS011;57639;52.410;-1.966;2023-01-30T05:16:22;1.65;;;0.80;;
61590;SDS011;57639;52.410;-1.966;2023-01-30T05:19:28;1.92;;;0.75;;
61590;SDS011;57639;52.410;-1.966;2023-01-30T05:22:34;1.88;;;0.60;;
61590;SDS011;57639;52.410;-1.966;2023-01-30T05:25:43;1.80;;;0.63;;
61590;SDS011;57639;52.410;-1.966;2023-01-30T05:28:50;2.47;;;0.65;;
61590;SDS011;57639;52.410;-1.966;2023-01-30T05:31:54;2.28;;;0.70;;
61590;SDS011;57639;52.410;-1.966;2023-01-30T05:35:00;2.28;;;0.70;;
61590;SDS011;57639;52.410;-1.966;2023-01-30T05:38:06;1.88;;;0.60;;
61590;SDS011;57639;52.410;-1.966;2023-01-30T05:41:15;2.40;;;0.60;;
61590;SDS011;57639;52.410;-1.966;2023-01-30T05:44:21;1.50;;;0.60;;
61590;SDS011;57639;52.410;-1.966;2023-01-30T05:47:27;2.83;;;0.77;;
61590;SDS011;57639;52.410;-1.966;2023-01-30T05:50:33;2.33;;;1.05;;
61590;SDS011;57639;52.410;-1.966;2023-01-30T05:53:44;2.00;;;0.80;;
61590;SDS011;57639;52.410;-1.966;2023-01-30T05:56:53;1.23;;;0.47;;
61590;SDS011;57639;52.410;-1.966;2023-01-30T05:59:59;2.55;;;1.10;;
61590;SDS011;57639;52.410;-1.966;2023-01-30T06:03:06;2.13;;;0.60;;
61590;SDS011;57639;52.410;-1.966;2023-01-30T06:06:12;3.25;;;0.60;;
61590;SDS011;57639;52.410;-1.966;2023-01-30T06:09:18;1.90;;;0.63;;
61590;SDS011;57639;52.410;-1.966;2023-01-30T06:12:26;2.70;;;0.70;;
61590;SDS011;57639;52.410;-1.966;2023-01-30T06:15:32;2.55;;;0.80;;
61590;SDS011;57639;52.410;-1.966;2023-01-30T06:18:38;2.47;;;0.85;;
61590;SDS011;57639;52.410;-1.966;2023-01-30T06:21:45;3.58;;;0.80;;
61590;SDS011;57639;52.410;-1.966;2023-01-30T06:24:51;1.73;;;0.70;;
61590;SDS011;57639;52.410;-1.966;2023-01-30T06:27:59;2.65;;;0.77;;
61590;SDS011;57639;52.410;-1.966;2023-01-30T06:31:06;2.90;;;0.80;;
61590;SDS011;57639;52.410;-1.966;2023-01-30T06:34:12;1.98;;;0.80;;
61590;SDS011;57639;52.410;-1.966;2023-01-30T06:37:18;1.70;;;0.57;;
61590;SDS011;57639;52.410;-1.966;2023-01-30T06:40:24;3.33;;;0.82;;
61590;SDS011;57639;52.410;-1.966;2023-01-30T06:43:33;2.10;;;0.82;;
61590;SDS011;57639;52.410;-1.966;2023-01-30T06:46:42;1.70;;;0.50;;
61590;SDS011;57639;52.410;-1.966;2023-01-30T06:49:50;2.65;;;0.60;;
61590;SDS011;57639;52.410;-1.966;2023-01-30T06:52:56;1.90;;;0.77;;
61590;SDS011;57639;52.410;-1.966;2023-01-30T06:56:02;1.38;;;0.57;;
61590;SDS011;57639;52.410;-1.966;2023-01-30T06:59:11;1.30;;;0.70;;
61590;SDS011;57639;52.410;-1.966;2023-01-30T07:02:18;2.67;;;0.90;;
61590;SDS011;57639;52.410;-1.966;2023-01-30T07:05:24;4.78;;;0.70;;
61590;SDS011;57639;52.410;-1.966;2023-01-30T07:08:33;2.72;;;0.73;;
61590;SDS011;57639;52.410;-1.966;2023-01-30T07:11:39;2.47;;;0.73;;
61590;SDS011;57639;52.410;-1.966;2023-01-30T07:14:47;3.42;;;0.90;;
61590;SDS011;57639;52.410;-1.966;2023-01-30T07:17:54;3.33;;;1.10;;
61590;SDS011;57639;52.410;-1.966;2023-01-30T07:21:03;3.80;;;0.90;;
61590;SDS011;57639;52.410;-1.966;2023-01-30T07:24:09;2.70;;;0.70;;
61590;SDS011;57639;52.410;-1.966;2023-01-30T07:27:15;3.35;;;1.13;;
61590;SDS011;57639;52.410;-1.966;2023-01-30T07:30:26;3.45;;;1.10;;
61590;SDS011;57639;52.410;-1.966;2023-01-30T07:33:34;2.50;;;1.00;;
61590;SDS011;57639;52.410;-1.966;2023-01-30T07:36:41;3.03;;;0.77;;
61590;SDS011;57639;52.410;-1.966;2023-01-30T07:39:47;2.90;;;1.00;;
61590;SDS011;57639;52.410;-1.966;2023-01-30T07:42:54;3.45;;;1.10;;
61590;SDS011;57639;52.410;-1.966;2023-01-30T07:46:04;3.35;;;0.95;;
61590;SDS011;57639;52.410;-1.966;2023-01-30T07:49:11;2.45;;;1.02;;
61590;SDS011;57639;52.410;-1.966;2023-01-30T07:52:19;3.28;;;1.10;;
61590;SDS011;57639;52.410;-1.966;2023-01-30T07:55:26;2.90;;;1.08;;
61590;SDS011;57639;52.410;-1.966;2023-01-30T07:58:35;2.30;;;1.00;;
61590;SDS011;57639;52.410;-1.966;2023-01-30T08:01:45;2.53;;;0.90;;
61590;SDS011;57639;52.410;-1.966;2023-01-30T08:04:51;2.85;;;1.02;;
61590;SDS011;57639;52.410;-1.966;2023-01-30T08:07:58;2.97;;;1.00;;
61590;SDS011;57639;52.410;-1.966;2023-01-30T08:11:05;3.13;;;1.13;;
61590;SDS011;57639;52.410;-1.966;2023-01-30T08:14:11;3.05;;;1.08;;
61590;SDS011;57639;52.410;-1.966;2023-01-30T08:17:22;3.40;;;1.20;;
61590;SDS011;57639;52.410;-1.966;2023-01-30T08:20:26;3.65;;;0.93;;
61590;SDS011;57639;52.410;-1.966;2023-01-30T08:23:33;2.90;;;1.08;;
61590;SDS011;57639;52.410;-1.966;2023-01-30T08:26:39;3.33;;;1.20;;
61590;SDS011;57639;52.410;-1.966;2023-01-30T08:29:43;3.83;;;1.15;;
61590;SDS011;57639;52.410;-1.966;2023-01-30T08:32:52;2.38;;;1.00;;
61590;SDS011;57639;52.410;-1.966;2023-01-30T08:35:58;2.63;;;0.90;;
61590;SDS011;57639;52.410;-1.966;2023-01-30T08:39:04;2.50;;;0.80;;
61590;SDS011;57639;52.410;-1.966;2023-01-30T08:42:11;2.22;;;0.98;;
61590;SDS011;57639;52.410;-1.966;2023-01-30T08:45:17;2.50;;;1.10;;
61590;SDS011;57639;52.410;-1.966;2023-01-30T08:48:27;2.42;;;0.88;;
61590;SDS011;57639;52.410;-1.966;2023-01-30T08:51:33;3.92;;;1.05;;
61590;SDS011;57639;52.410;-1.966;2023-01-30T08:54:38;4.18;;;1.20;;
61590;SDS011;57639;52.410;-1.966;2023-01-30T08:57:47;3.00;;;0.88;;
61590;SDS011;57639;52.410;-1.966;2023-01-30T09:00:53;2.80;;;0.90;;
61590;SDS011;57639;52.410;-1.966;2023-01-30T09:04:00;3.67;;;1.35;;
61590;SDS011;57639;52.410;-1.966;2023-01-30T09:07:09;3.47;;;1.23;;
61590;SDS011;57639;52.410;-1.966;2023-01-30T09:10:15;3.03;;;1.00;;
61590;SDS011;57639;52.410;-1.966;2023-01-30T09:13:21;4.03;;;1.00;;
61590;SDS011;57639;52.410;-1.966;2023-01-30T09:16:27;2.80;;;0.85;;
61590;SDS011;57639;52.410;-1.966;2023-01-30T09:19:36;3.42;;;1.15;;
61590;SDS011;57639;52.410;-1.966;2023-01-30T09:22:43;2.83;;;0.90;;
61590;SDS011;57639;52.410;-1.966;2023-01-30T09:25:49;2.85;;;0.70;;
61590;SDS011;57639;52.410;-1.966;2023-01-30T09:28:53;2.42;;;0.80;;
61590;SDS011;57639;52.410;-1.966;2023-01-30T09:31:59;3.17;;;1.00;;
61590;SDS011;57639;52.410;-1.966;2023-01-30T09:35:11;4.28;;;0.82;;
61590;SDS011;57639;52.410;-1.966;2023-01-30T09:38:17;2.75;;;0.80;;
61590;SDS011;57639;52.410;-1.966;2023-01-30T09:41:30;5.38;;;1.10;;
61590;SDS011;57639;52.410;-1.966;2023-01-30T09:45:01;3.78;;;0.98;;
61590;SDS011;57639;52.410;-1.966;2023-01-30T09:48:20;2.15;;;0.85;;
61590;SDS011;57639;52.410;-1.966;2023-01-30T09:51:34;3.60;;;1.00;;
61590;SDS011;57639;52.410;-1.966;2023-01-30T09:54:45;3.47;;;1.00;;
61590;SDS011;57639;52.410;-1.966;2023-01-30T09:57:51;3.85;;;1.20;;
61590;SDS011;57639;52.410;-1.966;2023-01-30T10:00:57;3.47;;;0.85;;
61590;SDS011;57639;52.410;-1.966;2023-01-30T10:04:13;2.45;;;0.80;;
61590;SDS011;57639;52.410;-1.966;2023-01-30T10:07:27;3.42;;;1.00;;
61590;SDS011;57639;52.410;-1.966;2023-01-30T10:10:44;2.50;;;0.88;;
61590;SDS011;57639;52.410;-1.966;2023-01-30T10:14:03;1.95;;;0.70;;
61590;SDS011;57639;52.410;-1.966;2023-01-30T10:17:29;2.97;;;1.00;;
61590;SDS011;57639;52.410;-1.966;2023-01-30T10:20:42;3.15;;;1.17;;
61590;SDS011;57639;52.410;-1.966;2023-01-30T10:24:03;2.80;;;0.90;;
61590;SDS011;57639;52.410;-1.966;2023-01-30T10:27:19;3.45;;;1.05;;
61590;SDS011;57639;52.410;-1.966;2023-01-30T10:30:26;3.92;;;0.70;;
61590;SDS011;57639;52.410;-1.966;2023-01-30T10:33:33;2.42;;;0.90;;
61590;SDS011;57639;52.410;-1.966;2023-01-30T10:36:46;4.28;;;1.20;;
61590;SDS011;57639;52.410;-1.966;2023-01-30T10:40:02;3.63;;;0.73;;
61590;SDS011;57639;52.410;-1.966;2023-01-30T10:43:18;3.90;;;0.77;;
61590;SDS011;57639;52.410;-1.966;2023-01-30T10:50:08;2.25;;;0.80;;
61590;SDS011;57639;52.410;-1.966;2023-01-30T10:53:20;3.53;;;0.85;;
61590;SDS011;57639;52.410;-1.966;2023-01-30T10:56:36;2.92;;;0.88;;
61590;SDS011;57639;52.410;-1.966;2023-01-30T10:59:49;2.20;;;0.90;;
61590;SDS011;57639;52.410;-1.966;2023-01-30T11:03:08;2.72;;;0.90;;
61590;SDS011;57639;52.410;-1.966;2023-01-30T11:06:34;3.10;;;0.90;;
61590;SDS011;57639;52.410;-1.966;2023-01-30T11:09:40;3.30;;;0.90;;
61590;SDS011;57639;52.410;-1.966;2023-01-30T11:12:53;3.70;;;0.70;;
61590;SDS011;57639;52.410;-1.966;2023-01-30T11:16:03;2.38;;;0.80;;
61590;SDS011;57639;52.410;-1.966;2023-01-30T11:19:18;4.93;;;0.95;;
61590;SDS011;57639;52.410;-1.966;2023-01-30T11:22:27;2.92;;;0.82;;
61590;SDS011;57639;52.410;-1.966;2023-01-30T11:25:46;2.97;;;0.77;;
61590;SDS011;57639;52.410;-1.966;2023-01-30T11:28:55;4.15;;;0.90;;
61590;SDS011;57639;52.410;-1.966;2023-01-30T11:32:02;3.45;;;1.23;;
61590;SDS011;57639;52.410;-1.966;2023-01-30T11:35:22;3.17;;;0.93;;
61590;SDS011;57639;52.410;-1.966;2023-01-30T11:38:30;3.97;;;1.00;;
61590;SDS011;57639;52.410;-1.966;2023-01-30T11:41:40;3.50;;;0.93;;
61590;SDS011;57639;52.410;-1.966;2023-01-30T11:44:49;2.42;;;0.98;;
61590;SDS011;57639;52.410;-1.966;2023-01-30T11:48:03;2.40;;;0.90;;
61590;SDS011;57639;52.410;-1.966;2023-01-30T11:51:16;3.28;;;0.90;;
61590;SDS011;57639;52.410;-1.966;2023-01-30T11:54:26;2.83;;;1.05;;
61590;SDS011;57639;52.410;-1.966;2023-01-30T11:57:37;3.13;;;1.20;;
61590;SDS011;57639;52.410;-1.966;2023-01-30T12:00:48;2.45;;;0.80;;
61590;SDS011;57639;52.410;-1.966;2023-01-30T12:03:55;3.60;;;1.00;;
61590;SDS011;57639;52.410;-1.966;2023-01-30T12:07:06;3.33;;;0.90;;
61590;SDS011;57639;52.410;-1.966;2023-01-30T12:10:27;2.95;;;0.90;;
61590;SDS011;57639;52.410;-1.966;2023-01-30T12:13:35;2.50;;;1.02;;
61590;SDS011;57639;52.410;-1.966;2023-01-30T12:16:49;2.40;;;0.70;;
61590;SDS011;57639;52.410;-1.966;2023-01-30T12:20:01;3.15;;;1.02;;
61590;SDS011;57639;52.410;-1.966;2023-01-30T12:23:15;2.80;;;0.98;;
61590;SDS011;57639;52.410;-1.966;2023-01-30T12:26:28;3.00;;;0.80;;
61590;SDS011;57639;52.410;-1.966;2023-01-30T12:29:40;2.70;;;1.00;;
61590;SDS011;57639;52.410;-1.966;2023-01-30T12:33:01;4.30;;;0.80;;
61590;SDS011;57639;52.410;-1.966;2023-01-30T12:36:12;4.03;;;1.25;;
61590;SDS011;57639;52.410;-1.966;2023-01-30T12:39:31;3.72;;;0.95;;
61590;SDS011;57639;52.410;-1.966;2023-01-30T12:42:55;3.35;;;1.02;;
61590;SDS011;57639;52.410;-1.966;2023-01-30T12:46:16;2.85;;;1.20;;
61590;SDS011;57639;52.410;-1.966;2023-01-30T12:49:45;3.45;;;1.20;;
61590;SDS011;57639;52.410;-1.966;2023-01-30T12:53:17;1.90;;;0.85;;
61590;SDS011;57639;52.410;-1.966;2023-01-30T12:56:39;4.80;;;1.10;;
61590;SDS011;57639;52.410;-1.966;2023-01-30T12:59:58;2.92;;;1.08;;
61590;SDS011;57639;52.410;-1.966;2023-01-30T13:03:22;3.10;;;0.90;;
61590;SDS011;57639;52.410;-1.966;2023-01-30T13:06:38;3.15;;;1.17;;
61590;SDS011;57639;52.410;-1.966;2023-01-30T13:10:00;4.50;;;1.30;;
61590;SDS011;57639;52.410;-1.966;2023-01-30T13:13:15;3.53;;;0.93;;
61590;SDS011;57639;52.410;-1.966;2023-01-30T13:16:27;4.50;;;1.00;;
61590;SDS011;57639;52.410;-1.966;2023-01-30T13:19:41;2.35;;;1.00;;
61590;SDS011;57639;52.410;-1.966;2023-01-30T13:22:55;3.88;;;1.08;;
61590;SDS011;57639;52.410;-1.966;2023-01-30T13:26:09;3.10;;;0.98;;
61590;SDS011;57639;52.410;-1.966;2023-01-30T13:29:25;2.95;;;0.90;;
61590;SDS011;57639;52.410;-1.966;2023-01-30T13:32:36;3.63;;;1.30;;
61590;SDS011;57639;52.410;-1.966;2023-01-30T13:35:47;3.03;;;1.10;;
61590;SDS011;57639;52.410;-1.966;2023-01-30T13:39:02;2.90;;;0.98;;
61590;SDS011;57639;52.410;-1.966;2023-01-30T13:42:19;3.65;;;1.30;;
61590;SDS011;57639;52.410;-1.966;2023-01-30T13:45:33;4.57;;;1.10;;
61590;SDS011;57639;52.410;-1.966;2023-01-30T13:48:47;3.58;;;1.00;;
61590;SDS011;57639;52.410;-1.966;2023-01-30T13:52:01;4.03;;;1.20;;
61590;SDS011;57639;52.410;-1.966;2023-01-30T13:55:19;5.03;;;1.00;;
61590;SDS011;57639;52.410;-1.966;2023-01-30T13:58:36;3.85;;;1.08;;
61590;SDS011;57639;52.410;-1.966;2023-01-30T14:05:14;3.67;;;0.93;;
61590;SDS011;57639;52.410;-1.966;2023-01-30T14:09:00;2.33;;;1.00;;
61590;SDS011;57639;52.410;-1.966;2023-01-30T14:12:24;3.88;;;1.15;;
61590;SDS011;57639;52.410;-1.966;2023-01-30T14:15:37;2.72;;;0.85;;
61590;SDS011;57639;52.410;-1.966;2023-01-30T14:18:45;3.45;;;1.05;;
61590;SDS011;57639;52.410;-1.966;2023-01-30T14:21:53;3.25;;;1.00;;
61590;SDS011;57639;52.410;-1.966;2023-01-30T14:31:55;3.28;;;1.17;;
61590;SDS011;57639;52.410;-1.966;2023-01-30T14:35:18;3.72;;;0.95;;
61590;SDS011;57639;52.410;-1.966;2023-01-30T14:38:29;3.70;;;1.20;;
61590;SDS011;57639;52.410;-1.966;2023-01-30T14:41:36;3.63;;;1.10;;
61590;SDS011;57639;52.410;-1.966;2023-01-30T14:45:04;2.90;;;0.98;;
61590;SDS011;57639;52.410;-1.966;2023-01-30T14:48:26;2.15;;;0.90;;
61590;SDS011;57639;52.410;-1.966;2023-01-30T14:51:34;2.78;;;1.00;;
61590;SDS011;57639;52.410;-1.966;2023-01-30T14:54:47;2.30;;;0.95;;
61590;SDS011;57639;52.410;-1.966;2023-01-30T14:57:56;4.43;;;1.02;;
61590;SDS011;57639;52.410;-1.966;2023-01-30T15:01:06;2.92;;;0.90;;
61590;SDS011;57639;52.410;-1.966;2023-01-30T15:04:13;4.37;;;1.10;;
61590;SDS011;57639;52.410;-1.966;2023-01-30T15:10:45;2.35;;;0.90;;
61590;SDS011;57639;52.410;-1.966;2023-01-30T15:14:02;3.17;;;1.00;;
61590;SDS011;57639;52.410;-1.966;2023-01-30T15:17:19;2.05;;;0.88;;
61590;SDS011;57639;52.410;-1.966;2023-01-30T15:20:38;2.00;;;0.70;;
61590;SDS011;57639;52.410;-1.966;2023-01-30T15:24:01;3.08;;;1.08;;
61590;SDS011;57639;52.410;-1.966;2023-01-30T15:27:29;2.05;;;0.88;;
61590;SDS011;57639;52.410;-1.966;2023-01-30T15:30:43;2.75;;;1.05;;
61590;SDS011;57639;52.410;-1.966;2023-01-30T15:34:02;3.00;;;0.82;;
61590;SDS011;57639;52.410;-1.966;2023-01-30T15:37:30;4.35;;;0.90;;
61590;SDS011;57639;52.410;-1.966;2023-01-30T15:40:38;4.18;;;1.30;;
61590;SDS011;57639;52.410;-1.966;2023-01-30T15:47:27;3.97;;;0.98;;
61590;SDS011;57639;52.410;-1.966;2023-01-30T15:50:50;3.60;;;1.00;;
61590;SDS011;57639;52.410;-1.966;2023-01-30T15:53:58;3.15;;;0.98;;
61590;SDS011;57639;52.410;-1.966;2023-01-30T15:57:11;3.63;;;1.00;;
61590;SDS011;57639;52.410;-1.966;2023-01-30T16:00:23;4.20;;;1.00;;
61590;SDS011;57639;52.410;-1.966;2023-01-30T16:03:33;2.55;;;0.90;;
61590;SDS011;57639;52.410;-1.966;2023-01-30T16:06:46;2.53;;;0.80;;
61590;SDS011;57639;52.410;-1.966;2023-01-30T16:09:53;2.30;;;0.93;;
61590;SDS011;57639;52.410;-1.966;2023-01-30T16:13:01;4.75;;;1.20;;
61590;SDS011;57639;52.410;-1.966;2023-01-30T16:16:08;2.15;;;0.90;;
61590;SDS011;57639;52.410;-1.966;2023-01-30T16:19:20;2.88;;;0.90;;
61590;SDS011;57639;52.410;-1.966;2023-01-30T16:22:33;5.38;;;1.10;;
61590;SDS011;57639;52.410;-1.966;2023-01-30T16:25:37;3.90;;;1.00;;
61590;SDS011;57639;52.410;-1.966;2023-01-30T16:28:43;2.72;;;0.90;;
61590;SDS011;57639;52.410;-1.966;2023-01-30T16:31:50;5.32;;;0.90;;
61590;SDS011;57639;52.410;-1.966;2023-01-30T16:35:25;2.67;;;0.82;;
61590;SDS011;57639;52.410;-1.966;2023-01-30T16:38:40;3.92;;;1.10;;
61590;SDS011;57639;52.410;-1.966;2023-01-30T16:41:52;4.47;;;1.05;;
61590;SDS011;57639;52.410;-1.966;2023-01-30T16:45:09;4.93;;;0.95;;
61590;SDS011;57639;52.410;-1.966;2023-01-30T16:48:51;3.38;;;1.08;;
61590;SDS011;57639;52.410;-1.966;2023-01-30T16:52:01;5.40;;;1.10;;
61590;SDS011;57639;52.410;-1.966;2023-01-30T16:55:18;4.75;;;1.23;;
61590;SDS011;57639;52.410;-1.966;2023-01-30T16:58:26;4.65;;;1.00;;
61590;SDS011;57639;52.410;-1.966;2023-01-30T17:01:36;2.03;;;0.60;;
61590;SDS011;57639;52.410;-1.966;2023-01-30T17:04:44;2.42;;;1.00;;
61590;SDS011;57639;52.410;-1.966;2023-01-30T17:07:50;5.75;;;1.13;;
61590;SDS011;57639;52.410;-1.966;2023-01-30T17:11:00;2.90;;;0.90;;
61590;SDS011;57639;52.410;-1.966;2023-01-30T17:14:15;4.17;;;1.10;;
61590;SDS011;57639;52.410;-1.966;2023-01-30T17:17:27;3.25;;;0.90;;
61590;SDS011;57639;52.410;-1.966;2023-01-30T17:20:37;3.05;;;1.00;;
61590;SDS011;57639;52.410;-1.966;2023-01-30T17:23:50;2.60;;;0.73;;
61590;SDS011;57639;52.410;-1.966;2023-01-30T17:27:05;3.17;;;1.10;;
61590;SDS011;57639;52.410;-1.966;2023-01-30T17:30:13;2.78;;;0.88;;
61590;SDS011;57639;52.410;-1.966;2023-01-30T17:33:19;2.63;;;0.80;;
61590;SDS011;57639;52.410;-1.966;2023-01-30T17:36:27;2.97;;;0.80;;
61590;SDS011;57639;52.410;-1.966;2023-01-30T17:39:34;4.50;;;0.98;;
61590;SDS011;57639;52.410;-1.966;2023-01-30T17:42:46;4.25;;;1.33;;
61590;SDS011;57639;52.410;-1.966;2023-01-30T17:45:52;2.53;;;0.73;;
61590;SDS011;57639;52.410;-1.966;2023-01-30T17:48:58;3.22;;;1.02;;
61590;SDS011;57639;52.410;-1.966;2023-01-30T17:52:04;2.58;;;0.80;;
61590;SDS011;57639;52.410;-1.966;2023-01-30T17:55:13;3.42;;;1.10;;
61590;SDS011;57639;52.410;-1.966;2023-01-30T17:58:23;2.90;;;1.13;;
61590;SDS011;57639;52.410;-1.966;2023-01-30T18:01:29;12.27;;;1.50;;
61590;SDS011;57639;52.410;-1.966;2023-01-30T18:04:35;13.00;;;1.50;;
61590;SDS011;57639;52.410;-1.966;2023-01-30T18:07:43;7.38;;;1.70;;
61590;SDS011;57639;52.410;-1.966;2023-01-30T18:10:47;12.63;;;1.67;;
61590;SDS011;57639;52.410;-1.966;2023-01-30T18:13:56;9.75;;;1.50;;
61590;SDS011;57639;52.410;-1.966;2023-01-30T18:17:03;5.95;;;1.48;;
61590;SDS011;57639;52.410;-1.966;2023-01-30T18:20:09;4.82;;;1.15;;
61590;SDS011;57639;52.410;-1.966;2023-01-30T18:23:17;5.68;;;1.42;;
61590;SDS011;57639;52.410;-1.966;2023-01-30T18:26:23;6.35;;;1.20;;
61590;SDS011;57639;52.410;-1.966;2023-01-30T18:29:32;5.60;;;1.40;;
61590;SDS011;57639;52.410;-1.966;2023-01-30T18:32:38;4.30;;;1.35;;
61590;SDS011;57639;52.410;-1.966;2023-01-30T18:35:44;6.72;;;1.30;;
61590;SDS011;57639;52.410;-1.966;2023-01-30T18:38:51;6.80;;;1.40;;
61590;SDS011;57639;52.410;-1.966;2023-01-30T18:41:57;6.75;;;1.15;;
61590;SDS011;57639;52.410;-1.966;2023-01-30T18:45:05;6.07;;;1.50;;
61590;SDS011;57639;52.410;-1.966;2023-01-30T18:48:12;3.53;;;1.27;;
61590;SDS011;57639;52.410;-1.966;2023-01-30T18:51:19;5.15;;;1.45;;
61590;SDS011;57639;52.410;-1.966;2023-01-30T18:54:27;4.40;;;1.50;;
61590;SDS011;57639;52.410;-1.966;2023-01-30T18:57:33;4.10;;;1.40;;
61590;SDS011;57639;52.410;-1.966;2023-01-30T19:00:44;4.70;;;1.60;;
61590;SDS011;57639;52.410;-1.966;2023-01-30T19:03:52;6.25;;;1.58;;
61590;SDS011;57639;52.410;-1.966;2023-01-30T19:06:56;4.55;;;1.70;;
61590;SDS011;57639;52.410;-1.966;2023-01-30T19:10:03;3.30;;;1.75;;
61590;SDS011;57639;52.410;-1.966;2023-01-30T19:13:09;4.65;;;1.80;;
61590;SDS011;57639;52.410;-1.966;2023-01-30T19:16:45;3.92;;;1.83;;
61590;SDS011;57639;52.410;-1.966;2023-01-30T19:19:53;7.22;;;2.05;;
61590;SDS011;57639;52.410;-1.966;2023-01-30T19:23:00;4.88;;;1.83;;
61590;SDS011;57639;52.410;-1.966;2023-01-30T19:26:06;5.70;;;2.47;;